You are not logged in, Click here to log in
尼諾伊·艾奎諾國際機場MNL / RPLL 菲律賓馬尼拉
ICAO: RPLL Country: 菲律賓馬尼拉
Latitude: 14.5123 Longitude: 121.017
Total Arrivals: 120 Total Departures: 121
Latest Arrival: CI711 (RCKH-RPLL)CHU. CHUHAO Latest Departure: BR278 (RPLL-RCTP)CHU. CHUHAO
Scenery:
METAR : RPLL 110400Z AUTO 28008KT 9999 SCT027 SCT037 32/26 Q1008

尼諾伊·艾奎諾國際機場MNL

You are accessing this site from IP address 34.229.119.29. Virtual Airline. CMS by phpVMS.Website designed by Zumeweb and edited by Theo Bearman.
There is 1 User(s) Online: | Lun Wang | and 14 Guest(s) Online.
All information on this site is for fight simulation purposes only. This site is for flight logging for pilots of Virtual Airline&模擬飛行論壇 FlySim only.